Airfield :
LOGIN :

Register | Disclaimer

   EN    FR    IT 

 










Legend :    VFR   Marginal VFR   IFR   Intensive IFR   Very Intensive IFR
Visi :
Ceiling :
>= 8 km
>= 3000ft
5 to 8 km
1000 to 3000 ft
1500m to 5 km
500 to 1000 ft
800 to 1500m
200 to 500 ft
< 800m
< 200 ft
Symbols :   Thunderstorms  Fog  Heavy snow  Heavy precipitations  Wind > 20 kt
SIGMETs :     Misc.  Thunderstorms  Icing  Turbulence  Mountain Waves  Volcanic Ashes






- Airport Elevation : 194 ft


EBCV - Chièvres

CURRENT METAR :
  • 210233Z AUTO VRB02KT 0500 FG /// M01/M01 Q1042 RED

EXPIRED METARs :
  • 210203Z AUTO VRB01KT 0450 FG /// M00/M00 Q1042 RED
  • 210155Z AUTO VRB01KT 0900 FG /// M01/M01 Q1040 AMB
  • 210143Z AUTO VRB02KT 0750 BR /// 01/01 Q1041 RED
  • 210125Z AUTO 08003KT 1400 BR /// 01/01 Q1041 AMB
  • 210114Z AUTO 09003KT 1500 BR /// 01/01 Q1041 AMB
  • 210055Z AUTO VRB02KT 2300 BR /// 01/01 Q1042 YLO
  • 210025Z AUTO VRB01KT 3000 BR /// 02/02 Q1042 YLO
  • 210004Z AUTO VRB02KT 3600 BR /// 03/03 Q1042 YLO
  • 202355Z AUTO 13003KT 3700 BR /// 03/03 Q1042 GRN
  • 202325Z AUTO 12003KT 2500 BR /// 03/03 Q1044 YLO

TAF TAF EBCV
Valid from the 20 at 19:00 until the 21 at 07:00 UTC


201541Z 2019/2107 VRB02KT 3000 BR BKN004
BECMG 2023/2101 1500 BR BKN002
BECMG 2101/2103 0500 FZFG BKN000 BY EBWM



MET'MAP, your aeronautical weather chart ! - Copyright ORBIFLY December 2007 - Disclaimer

ORBIFLY MET'MAP TEAM :

Programming & Development : Alexandra Zaïnal
Concept & original design : Baudouin d'Aumeries
Assistance for programming : Marc-Olivier Méhu
Technical & hardware support : Manuel Goepfert

Contact : metmap@orbifly.com




SOURCES & CREDITS :

   NOAA